createdAt,value
2017-03-26T10:20:22.765Z,99424
2017-03-26T10:21:26.861Z,99168
2017-03-26T10:22:31.002Z,100704
2017-03-26T10:23:35.334Z,99968
2017-03-26T10:24:39.647Z,88256
2017-03-26T10:25:42.484Z,100992
2017-03-26T10:26:47.204Z,101728
2017-03-26T10:27:50.932Z,100288
2017-03-26T10:28:54.582Z,101568
2017-03-26T10:29:58.628Z,99616
2017-03-26T10:31:07.236Z,94688
2017-03-26T10:32:09.924Z,97184
2017-03-26T10:33:13.377Z,91904
2017-03-26T10:34:21.867Z,5764
2017-03-26T10:35:25.767Z,40672
2017-03-26T10:36:28.409Z,31648
2017-03-26T10:37:31.618Z,28192
2017-03-26T10:38:35.348Z,42496
2017-03-26T10:39:38.496Z,82080
2017-03-26T10:40:43.889Z,89984
2017-03-26T10:41:47.673Z,97376
2017-03-26T10:42:54.039Z,97600
2017-03-26T10:44:00.730Z,98880
2017-03-26T10:45:04.236Z,94304
2017-03-26T10:46:06.115Z,89216
2017-03-26T10:47:11.205Z,78528
2017-03-26T10:48:16.481Z,74016
2017-03-26T10:49:21.113Z,70912
2017-03-26T10:50:25.631Z,58624
2017-03-26T10:51:30.083Z,58336
2017-03-26T10:52:32.798Z,66784
2017-03-26T10:53:37.035Z,78272
2017-03-26T10:54:41.552Z,84576
2017-03-26T10:55:46.243Z,94400
2017-03-26T10:56:50.892Z,94592
2017-03-26T10:57:55.554Z,98528
2017-03-26T10:59:00.031Z,97280
2017-03-26T11:00:04.292Z,96576
2017-03-26T11:01:09.037Z,97056
2017-03-26T11:02:13.682Z,97440
2017-03-26T11:03:18.130Z,97248
2017-03-26T11:04:23.040Z,97312
2017-03-26T11:05:27.276Z,99744
2017-03-26T11:06:31.647Z,99488
2017-03-26T11:07:36.285Z,98336
2017-03-26T11:08:40.013Z,98240
2017-03-26T11:09:44.359Z,95776
2017-03-26T11:10:48.916Z,79040
2017-03-26T11:11:53.281Z,83200
2017-03-26T11:12:58.988Z,84608
2017-03-26T11:14:02.008Z,78208
2017-03-26T11:15:11.561Z,66400
2017-03-26T11:16:15.638Z,36672
2017-03-26T11:17:20.268Z,14624
2017-03-26T11:18:23.359Z,12952
2017-03-26T11:19:26.383Z,9176
2017-03-26T11:20:29.285Z,12952
2017-03-26T11:21:33.622Z,8824
2017-03-26T11:22:38.736Z,11804
2017-03-26T11:23:42.254Z,11604
2017-03-26T11:24:45.777Z,11636
2017-03-26T11:25:50.251Z,11784
2017-03-26T11:26:55.011Z,12072
2017-03-26T11:27:57.677Z,30144
2017-03-26T11:29:03.988Z,84448
